Terminal Aerodrome Forecast
Issued by NWS

Home | Current Version | Previous Version | Text Only | Print | Product List | Glossary Off
Versions: 1 2 3 4 5 6 7 8 9 10 11 12 13 14 15

000
FTUS45 KGGW 220307 AAA
TAFGDV
TAF AMD
KGDV 220307Z 2203/2224 VRB05KT P6SM VCSH SCT070 BKN110
     FM220600 27009KT P6SM SCT100
     FM221700 29019G27KT P6SM FEW100
     FM222300 31025G37KT P6SM BKN080=

USA.gov is the U.S. government's official web portal to all federal, state and local government web resources and services.